Time;durP1;ratioP1;P1;durP2;ratioP2;P2;SDS_P1;SDS_P2;PMS_P1;PMS_P2;Temp;Humidity;BMP_temperature;BMP_pressure;BME280_temperature;BME280_humidity;BME280_pressure;Samples;Min_cycle;Max_cycle;Signal;HPM_P1;HPM_P2
2022/03/03 00:01:25;;;;;;;30.95;14.25;;;;;;;4.59;44.87;101583.09;5075196;28;20056;-63
2022/03/03 00:03:55;;;;;;;30.25;14.18;;;;;;;4.53;44.58;101578.22;5078583;28;20039;-63
2022/03/03 00:06:22;;;;;;;27.75;13.20;;;;;;;4.50;44.08;101586.28;5071837;28;20044;-63
2022/03/03 00:08:49;;;;;;;30.13;14.32;;;;;;;4.44;45.00;101589.31;5046811;28;20083;-63
2022/03/03 00:11:15;;;;;;;30.30;14.07;;;;;;;4.51;44.36;101585.38;5079049;28;20044;-63
2022/03/03 00:13:42;;;;;;;27.27;12.93;;;;;;;4.54;44.20;101586.94;5062215;28;20036;-62
2022/03/03 00:16:09;;;;;;;30.77;13.35;;;;;;;4.57;43.39;101586.78;5066369;28;20502;-63
2022/03/03 00:18:36;;;;;;;30.90;14.02;;;;;;;4.63;43.48;101589.00;5078413;28;20074;-63
2022/03/03 00:21:03;;;;;;;32.20;13.75;;;;;;;4.55;44.11;101588.66;5062027;28;20054;-61
2022/03/03 00:23:30;;;;;;;30.42;14.20;;;;;;;4.53;43.91;101587.88;5078143;28;20036;-61
2022/03/03 00:25:57;;;;;;;33.60;13.95;;;;;;;4.54;44.06;101585.16;5096836;28;20036;-61
2022/03/03 00:28:24;;;;;;;30.45;13.57;;;;;;;4.49;44.58;101576.72;5057725;28;20400;-63
2022/03/03 00:30:50;;;;;;;30.52;14.23;;;;;;;4.41;46.14;101574.56;5061911;28;20044;-61
2022/03/03 00:33:17;;;;;;;33.90;14.88;;;;;;;4.35;46.12;101582.81;5095695;28;20040;-63
2022/03/03 00:35:44;;;;;;;29.75;14.48;;;;;;;4.35;45.99;101572.31;5078210;28;20044;-63
2022/03/03 00:38:12;;;;;;;28.33;14.38;;;;;;;4.29;47.00;101571.84;5078398;28;20407;-61
2022/03/03 00:40:39;;;;;;;32.45;14.02;;;;;;;4.24;46.54;101572.13;5074621;28;20181;-62
2022/03/03 00:43:06;;;;;;;28.38;14.52;;;;;;;4.21;45.91;101569.69;5058030;28;20044;-62
2022/03/03 00:45:35;;;;;;;35.67;15.05;;;;;;;4.19;46.39;101561.88;5069507;28;20109;-62
2022/03/03 00:48:02;;;;;;;29.30;14.35;;;;;;;4.15;45.83;101562.19;5074871;28;20055;-61
2022/03/03 00:50:30;;;;;;;30.35;15.25;;;;;;;4.12;46.13;101559.72;5058005;28;20043;-62
2022/03/03 00:52:57;;;;;;;29.48;14.65;;;;;;;4.13;47.65;101562.28;5075877;28;20040;-62
2022/03/03 00:55:23;;;;;;;29.27;14.48;;;;;;;4.07;47.38;101557.38;5074432;28;20037;-62
2022/03/03 00:57:51;;;;;;;29.50;15.18;;;;;;;4.04;47.20;101565.44;5074841;28;20036;-62
2022/03/03 01:00:18;;;;;;;27.10;13.90;;;;;;;4.00;46.99;101558.66;5074567;28;20094;-62
2022/03/03 01:02:46;;;;;;;31.90;14.85;;;;;;;3.97;47.64;101558.88;5074402;28;20041;-61
2022/03/03 01:05:15;;;;;;;29.30;14.60;;;;;;;3.87;46.87;101561.19;5074051;28;20055;-61
2022/03/03 01:07:43;;;;;;;30.75;14.48;;;;;;;3.87;46.44;101557.72;5058110;28;20067;-61
2022/03/03 01:10:11;;;;;;;32.42;14.95;;;;;;;3.91;46.68;101553.97;5075344;28;20064;-61
2022/03/03 01:12:38;;;;;;;31.75;14.10;;;;;;;3.93;46.89;101554.72;5074244;28;20107;-61
2022/03/03 01:15:07;;;;;;;29.88;14.65;;;;;;;3.92;46.54;101559.13;5073925;28;20052;-61
2022/03/03 01:17:35;;;;;;;31.20;15.18;;;;;;;3.84;47.47;101554.34;5075472;28;20061;-61
2022/03/03 01:20:02;;;;;;;31.75;14.85;;;;;;;3.83;47.94;101557.06;5073975;28;20068;-61
2022/03/03 01:22:29;;;;;;;30.73;15.25;;;;;;;3.78;48.63;101561.72;5075197;28;20041;-61
2022/03/03 01:24:56;;;;;;;32.95;15.27;;;;;;;3.75;48.80;101568.00;5075105;28;20068;-64
2022/03/03 01:27:23;;;;;;;32.35;15.07;;;;;;;3.69;49.52;101552.59;5074199;28;20508;-63
2022/03/03 01:29:49;;;;;;;37.10;15.70;;;;;;;3.50;48.67;101565.94;5075160;28;20048;-61
2022/03/03 01:32:16;;;;;;;32.47;14.70;;;;;;;3.54;49.71;101556.13;5074962;28;20124;-61
2022/03/03 01:34:43;;;;;;;31.70;15.10;;;;;;;3.52;49.41;101556.22;5057352;28;20055;-61
2022/03/03 01:37:09;;;;;;;32.25;15.55;;;;;;;3.52;49.35;101550.97;5074966;28;20044;-62
2022/03/03 01:39:36;;;;;;;32.45;14.55;;;;;;;3.49;49.67;101547.66;5074962;28;20083;-63
2022/03/03 01:42:03;;;;;;;28.75;14.50;;;;;;;3.49;49.64;101538.00;5091740;28;20059;-62
2022/03/03 01:44:30;;;;;;;37.10;15.13;;;;;;;3.45;49.20;101539.97;5094971;28;20036;-63
2022/03/03 01:46:58;;;;;;;31.52;15.70;;;;;;;3.46;47.97;101535.59;5094886;28;20137;-63
2022/03/03 01:49:25;;;;;;;35.67;15.68;;;;;;;3.40;49.49;101539.41;5060318;28;20404;-62
2022/03/03 01:51:52;;;;;;;37.55;15.25;;;;;;;3.40;48.84;101531.53;5076938;28;20044;-63
2022/03/03 01:54:19;;;;;;;30.75;14.73;;;;;;;3.37;49.55;101529.09;5060356;28;20040;-63
2022/03/03 01:56:46;;;;;;;40.83;15.18;;;;;;;3.34;50.51;101526.63;5095000;28;20042;-63
2022/03/03 01:59:14;;;;;;;35.97;15.50;;;;;;;3.35;49.70;101524.88;5059971;28;20040;-63
2022/03/03 02:01:42;;;;;;;39.70;15.32;;;;;;;3.35;49.93;101527.50;5043736;28;20515;-63
2022/03/03 02:04:10;;;;;;;33.58;14.38;;;;;;;3.31;49.39;101532.06;5094280;28;20071;-63
2022/03/03 02:06:39;;;;;;;29.30;14.25;;;;;;;3.26;49.60;101527.06;5094735;28;20099;-63
2022/03/03 02:09:06;;;;;;;37.25;15.13;;;;;;;3.26;49.56;101523.63;5094432;28;20040;-63
2022/03/03 02:11:33;;;;;;;34.80;15.15;;;;;;;3.20;49.55;101524.81;5076760;28;20089;-63
2022/03/03 02:14:02;;;;;;;39.47;15.30;;;;;;;3.16;49.69;101528.53;5094512;28;20546;-63
2022/03/03 02:16:30;;;;;;;35.75;15.75;;;;;;;3.13;49.71;101526.09;5095918;28;20055;-62
2022/03/03 02:18:58;;;;;;;34.80;15.38;;;;;;;3.14;49.67;101521.69;5076914;28;20079;-63
2022/03/03 02:21:26;;;;;;;31.20;14.35;;;;;;;3.05;50.51;101520.41;5027493;28;20059;-63
2022/03/03 02:23:53;;;;;;;35.33;14.88;;;;;;;3.06;50.31;101509.03;5076083;28;20075;-62
2022/03/03 02:26:22;;;;;;;33.00;14.70;;;;;;;3.07;49.73;101508.94;5075833;28;20097;-63
2022/03/03 02:28:50;;;;;;;38.65;15.60;;;;;;;2.97;50.35;101509.53;5090950;28;20044;-63
2022/03/03 02:31:18;;;;;;;34.78;15.00;;;;;;;2.97;51.02;101501.69;5073679;28;20098;-63
2022/03/03 02:33:46;;;;;;;34.75;14.93;;;;;;;2.95;50.78;101501.75;5055574;28;20427;-62
2022/03/03 02:36:23;;;;;;;34.20;13.85;;;;;;;2.92;50.84;101499.28;5073632;28;20068;-63
2022/03/03 02:38:53;;;;;;;32.10;14.18;;;;;;;2.95;51.69;101496.50;5055985;28;20550;-63
2022/03/03 02:41:20;;;;;;;30.52;15.10;;;;;;;2.90;50.93;101502.94;5064008;28;20051;-62
2022/03/03 02:43:47;;;;;;;34.70;14.95;;;;;;;2.88;51.53;101500.41;5075820;28;20036;-62
2022/03/03 02:46:14;;;;;;;33.75;15.90;;;;;;;2.79;51.37;101499.13;5059456;28;20043;-62
2022/03/03 02:48:41;;;;;;;32.85;15.65;;;;;;;2.80;51.77;101498.22;5093908;28;20040;-63
2022/03/03 02:51:08;;;;;;;36.72;15.07;;;;;;;2.83;51.33;101490.16;5058777;28;20486;-62
2022/03/03 02:53:35;;;;;;;31.50;15.25;;;;;;;2.76;51.83;101486.19;5093889;28;20050;-62
2022/03/03 02:56:04;;;;;;;33.00;15.05;;;;;;;2.74;51.97;101489.84;5075803;28;20530;-63
2022/03/03 02:58:31;;;;;;;31.48;14.77;;;;;;;2.68;52.15;101489.25;5042748;28;20400;-63
2022/03/03 03:01:00;;;;;;;33.03;15.48;;;;;;;2.64;52.80;101479.03;5093511;28;20089;-62
2022/03/03 03:03:27;;;;;;;35.45;15.65;;;;;;;2.67;52.34;101481.47;5075507;28;20040;-62
2022/03/03 03:05:54;;;;;;;37.35;15.13;;;;;;;2.60;52.40;101486.22;5058632;28;20094;-63
2022/03/03 03:08:24;;;;;;;31.65;15.43;;;;;;;2.60;52.40;101480.97;5093658;28;20400;-62
2022/03/03 03:10:50;;;;;;;35.05;14.95;;;;;;;2.59;52.87;101479.28;5075190;28;20040;-63
2022/03/03 03:13:17;;;;;;;33.97;15.82;;;;;;;2.57;53.05;101468.03;5075610;28;20044;-62
2022/03/03 03:15:45;;;;;;;34.15;14.88;;;;;;;2.56;52.73;101473.38;5075407;28;20036;-62
2022/03/03 03:18:17;;;;;;;32.38;14.45;;;;;;;2.60;51.10;101469.63;5075530;28;20051;-62
2022/03/03 03:20:48;;;;;;;32.25;14.35;;;;;;;2.67;51.75;101471.00;5092996;28;20454;-63
2022/03/03 03:23:16;;;;;;;35.13;14.25;;;;;;;2.66;51.80;101469.31;5075638;28;20044;-63
2022/03/03 03:25:44;;;;;;;31.83;13.88;;;;;;;2.63;50.34;101467.69;5075243;28;20165;-63
2022/03/03 03:28:12;;;;;;;30.15;14.00;;;;;;;2.69;51.61;101467.38;5075385;28;20169;-63
2022/03/03 03:30:40;;;;;;;32.15;14.60;;;;;;;2.76;51.03;101464.41;5075194;28;20122;-63
2022/03/03 03:33:07;;;;;;;30.23;13.45;;;;;;;2.69;50.64;101462.13;5093133;28;20040;-63
2022/03/03 03:35:35;;;;;;;33.25;13.98;;;;;;;2.69;51.50;101459.50;5092958;28;20036;-63
2022/03/03 03:38:02;;;;;;;32.47;14.18;;;;;;;2.76;50.88;101461.78;5075136;28;20044;-63
2022/03/03 03:40:29;;;;;;;33.35;13.80;;;;;;;2.77;49.59;101461.69;5071504;28;20141;-63
2022/03/03 03:42:56;;;;;;;32.42;14.60;;;;;;;2.74;50.66;101466.25;5071593;28;20040;-63
2022/03/03 03:45:22;;;;;;;30.73;13.00;;;;;;;2.77;50.57;101459.06;5038460;28;20488;-63
2022/03/03 03:47:49;;;;;;;31.77;13.43;;;;;;;2.76;50.52;101457.38;5071787;28;20045;-63
2022/03/03 03:50:16;;;;;;;28.02;13.38;;;;;;;2.70;49.82;101460.34;5071299;28;20068;-63
2022/03/03 03:52:43;;;;;;;32.50;13.48;;;;;;;2.65;50.83;101463.22;5072781;28;20052;-63
2022/03/03 03:55:11;;;;;;;33.45;13.35;;;;;;;2.69;51.16;101464.75;5071931;28;20048;-62
2022/03/03 03:57:38;;;;;;;33.92;13.90;;;;;;;2.62;51.12;101458.16;5072725;28;20508;-63
2022/03/03 04:00:10;;;;;;;29.17;13.52;;;;;;;2.66;50.42;101467.53;5071401;28;20500;-63
2022/03/03 04:02:41;;;;;;;29.48;13.20;;;;;;;2.68;51.02;101454.34;5055329;28;20036;-63
2022/03/03 04:05:09;;;;;;;29.52;14.25;;;;;;;2.72;51.03;101449.78;5071254;28;20040;-63
2022/03/03 04:07:37;;;;;;;33.17;13.73;;;;;;;2.72;50.52;101455.03;5071562;28;20094;-63
2022/03/03 04:10:07;;;;;;;31.15;13.43;;;;;;;2.74;49.88;101453.16;5072584;28;20051;-63
2022/03/03 04:12:33;;;;;;;27.10;13.40;;;;;;;2.72;50.14;101455.88;5072778;28;20135;-63
2022/03/03 04:15:00;;;;;;;32.63;13.32;;;;;;;2.65;51.31;101451.91;5054945;28;20037;-63
2022/03/03 04:17:27;;;;;;;30.75;13.45;;;;;;;2.63;51.45;101446.72;5054876;28;20502;-63
2022/03/03 04:19:54;;;;;;;29.67;13.98;;;;;;;2.61;51.57;101455.63;5071161;28;20094;-63
2022/03/03 04:22:21;;;;;;;31.55;13.43;;;;;;;2.58;51.06;101448.75;5066435;28;20052;-63
2022/03/03 04:24:48;;;;;;;31.20;14.35;;;;;;;2.55;51.67;101454.19;5074365;28;20036;-63
2022/03/03 04:27:14;;;;;;;31.80;14.20;;;;;;;2.56;51.71;101444.56;5073858;28;20052;-63
2022/03/03 04:29:42;;;;;;;33.42;12.90;;;;;;;2.48;51.47;101440.56;5045021;28;20049;-63
2022/03/03 04:32:09;;;;;;;38.58;13.88;;;;;;;2.50;51.62;101443.94;5034855;28;20053;-63
2022/03/03 04:34:35;;;;;;;27.83;13.75;;;;;;;2.40;51.41;101439.31;5051602;28;20037;-65
2022/03/03 04:37:03;;;;;;;29.70;13.27;;;;;;;2.41;51.42;101434.00;5051169;28;20110;-63
2022/03/03 04:39:30;;;;;;;28.58;13.57;;;;;;;2.48;51.64;101431.88;5052231;28;20079;-63
2022/03/03 04:41:58;;;;;;;26.08;13.35;;;;;;;2.46;52.62;101428.50;5044285;28;20053;-63
2022/03/03 04:44:26;;;;;;;27.52;13.25;;;;;;;2.39;51.78;101424.53;5052064;28;20493;-63
2022/03/03 04:46:53;;;;;;;29.17;13.57;;;;;;;2.35;51.00;101418.63;5052214;28;20044;-63
2022/03/03 04:49:20;;;;;;;31.05;13.18;;;;;;;2.33;50.99;101419.63;5071231;28;20044;-62
2022/03/03 04:51:47;;;;;;;29.08;13.18;;;;;;;2.36;51.39;101409.81;5075772;28;20044;-63
2022/03/03 04:54:16;;;;;;;32.03;12.95;;;;;;;2.37;51.45;101408.91;5058082;28;20040;-63
2022/03/03 04:56:43;;;;;;;31.20;13.15;;;;;;;2.29;52.32;101395.38;5074668;28;20558;-63
2022/03/03 04:59:10;;;;;;;31.77;13.32;;;;;;;2.30;52.27;101387.44;5075583;28;20040;-63
2022/03/03 05:01:37;;;;;;;28.65;12.38;;;;;;;2.33;51.24;101394.31;5075606;28;20044;-63
2022/03/03 05:04:03;;;;;;;29.83;12.95;;;;;;;2.38;51.86;101391.41;5074466;28;20047;-63
2022/03/03 05:06:30;;;;;;;34.30;12.82;;;;;;;2.41;52.69;101388.63;5075235;28;20036;-63
2022/03/03 05:08:57;;;;;;;30.75;13.15;;;;;;;2.42;52.19;101393.78;5075478;28;20090;-63
2022/03/03 05:11:28;;;;;;;29.67;12.82;;;;;;;2.39;52.40;101387.88;5074216;28;20554;-63
2022/03/03 05:13:55;;;;;;;27.85;13.45;;;;;;;2.36;51.43;101385.41;5075142;28;20047;-63
2022/03/03 05:16:22;;;;;;;29.40;12.90;;;;;;;2.28;51.47;101388.47;5074111;28;20460;-63
2022/03/03 05:18:49;;;;;;;28.58;12.52;;;;;;;2.37;51.52;101393.19;5074218;28;20071;-63
2022/03/03 05:21:15;;;;;;;31.52;13.00;;;;;;;2.43;50.35;101378.91;5073696;28;20147;-63
2022/03/03 05:23:42;;;;;;;27.17;12.90;;;;;;;2.39;51.83;101382.63;5073734;28;20036;-63
2022/03/03 05:26:09;;;;;;;30.35;13.13;;;;;;;2.30;51.67;101382.19;5068651;28;20110;-62
2022/03/03 05:28:36;;;;;;;32.63;12.77;;;;;;;2.25;50.57;101378.16;5064942;28;20056;-64
2022/03/03 05:31:03;;;;;;;35.58;12.95;;;;;;;2.37;50.37;101384.50;5074798;28;20069;-63
2022/03/03 05:33:30;;;;;;;30.33;12.88;;;;;;;2.35;51.17;101391.56;5073745;28;20040;-63
2022/03/03 05:36:01;;;;;;;26.45;12.65;;;;;;;2.31;51.77;101393.53;5073590;28;20495;-63
2022/03/03 05:38:32;;;;;;;27.40;12.50;;;;;;;2.26;50.68;101395.56;5075132;28;20040;-62
2022/03/03 05:40:59;;;;;;;29.00;12.55;;;;;;;2.29;51.91;101400.63;5057081;28;20049;-63
2022/03/03 05:43:27;;;;;;;28.45;12.82;;;;;;;2.32;51.70;101404.84;5040721;28;20078;-63
2022/03/03 05:45:55;;;;;;;33.38;13.13;;;;;;;2.28;51.36;101414.66;5074749;28;20040;-63
2022/03/03 05:48:23;;;;;;;31.40;12.95;;;;;;;2.21;52.20;101402.81;5074835;28;20044;-62
2022/03/03 05:50:50;;;;;;;28.50;13.13;;;;;;;2.22;51.83;101405.38;5073289;28;20066;-62
2022/03/03 05:53:17;;;;;;;27.23;12.73;;;;;;;2.23;51.60;101399.19;5040597;28;20323;-63
2022/03/03 05:55:50;;;;;;;30.48;13.50;;;;;;;2.23;51.89;101399.19;5058082;28;20159;-63
2022/03/03 05:58:21;;;;;;;32.60;12.98;;;;;;;2.31;50.92;101393.53;5073618;28;20068;-62
2022/03/03 06:00:53;;;;;;;26.30;12.88;;;;;;;2.21;51.75;101395.81;5073279;28;20412;-64
2022/03/03 06:03:20;;;;;;;24.55;11.85;;;;;;;2.21;51.56;101395.81;5074506;28;20036;-61
2022/03/03 06:05:52;;;;;;;29.02;13.02;;;;;;;2.25;51.08;101397.31;5061948;28;20041;-63
2022/03/03 06:08:26;;;;;;;29.17;12.52;;;;;;;2.24;52.04;101398.25;5053195;28;20076;-63
2022/03/03 06:10:53;;;;;;;27.23;11.98;;;;;;;2.20;52.13;101401.97;5036097;28;20063;-63
2022/03/03 06:13:27;;;;;;;28.63;13.25;;;;;;;2.22;52.35;101400.13;5037108;28;20456;-63
2022/03/03 06:15:54;;;;;;;27.33;12.75;;;;;;;2.23;52.49;101401.78;5053069;28;20091;-62
2022/03/03 06:18:31;;;;;;;28.38;12.82;;;;;;;2.24;51.54;101406.13;5052858;28;20090;-62
2022/03/03 06:20:58;;;;;;;30.33;13.43;;;;;;;2.15;52.82;101409.25;5053751;28;20064;-62
2022/03/03 06:23:25;;;;;;;28.65;13.20;;;;;;;2.16;52.71;101413.53;5036479;28;20448;-62
2022/03/03 06:26:03;;;;;;;29.60;14.00;;;;;;;2.13;53.09;101405.88;5020241;28;20048;-62
2022/03/03 06:28:30;;;;;;;28.63;13.13;;;;;;;2.07;53.84;101408.78;5052836;28;20462;-62
2022/03/03 06:30:57;;;;;;;36.38;12.50;;;;;;;1.97;53.25;101408.44;5068570;28;20075;-62
2022/03/03 06:33:25;;;;;;;28.35;13.13;;;;;;;2.05;53.18;101414.09;5073870;28;20047;-62
2022/03/03 06:35:52;;;;;;;28.38;13.68;;;;;;;2.03;53.45;101409.91;5055343;28;20041;-62
2022/03/03 06:38:19;;;;;;;30.25;13.63;;;;;;;1.97;54.28;101407.63;5073828;28;20051;-63
2022/03/03 06:40:46;;;;;;;26.50;12.68;;;;;;;1.72;54.33;101414.97;5080329;28;20048;-63
2022/03/03 06:43:12;;;;;;;29.23;13.00;;;;;;;1.36;55.34;101417.72;5075749;28;20051;-63
2022/03/03 06:45:39;;;;;;;26.77;13.30;;;;;;;1.53;56.03;101416.88;5064539;28;20041;-62
2022/03/03 06:48:06;;;;;;;32.13;14.20;;;;;;;1.67;55.72;101413.53;5073016;28;20530;-62
2022/03/03 06:50:36;;;;;;;40.58;15.00;;;;;;;1.69;56.55;101411.66;5063140;28;20386;-62
2022/03/03 06:53:04;;;;;;;35.92;13.75;;;;;;;1.75;56.28;101416.59;5080419;28;20039;-62
2022/03/03 06:55:32;;;;;;;33.92;14.35;;;;;;;1.71;56.70;101425.50;5100547;28;20036;-62
2022/03/03 06:57:59;;;;;;;34.17;13.75;;;;;;;1.67;56.17;101424.84;5073631;28;20549;-62
2022/03/03 07:00:31;;;;;;;31.23;12.95;;;;;;;1.77;56.93;101417.34;5041984;28;20044;-62
2022/03/03 07:02:57;;;;;;;36.22;13.32;;;;;;;1.91;56.11;101420.09;5075528;28;20568;-62
2022/03/03 07:05:24;;;;;;;32.38;12.95;;;;;;;1.80;56.39;101414.59;5075036;28;20036;-62
2022/03/03 07:07:52;;;;;;;29.08;13.48;;;;;;;1.87;56.64;101415.97;5093486;28;20048;-62
2022/03/03 07:10:23;;;;;;;31.15;14.00;;;;;;;1.84;57.03;101423.13;5075569;28;20048;-62
2022/03/03 07:12:53;;;;;;;33.67;14.07;;;;;;;1.94;56.82;101415.63;5075893;28;20036;-62
2022/03/03 07:15:25;;;;;;;30.33;14.20;;;;;;;2.00;56.70;101417.91;5060149;28;20119;-62
2022/03/03 07:18:01;;;;;;;32.42;14.20;;;;;;;2.02;56.69;101422.16;5075227;28;20036;-62
2022/03/03 07:20:57;;;;;;;31.40;13.18;;;;;;;2.10;55.60;101417.31;5058351;28;20070;-62
2022/03/03 07:23:38;;;;;;;27.50;13.52;;;;;;;2.20;55.42;101419.44;5093219;28;20063;-62
2022/03/03 07:26:10;;;;;;;27.95;12.70;;;;;;;2.28;54.60;101410.25;5075031;28;20040;-62
2022/03/03 07:28:39;;;;;;;29.35;13.68;;;;;;;2.33;55.08;101406.53;5058814;28;20056;-62
2022/03/03 07:31:08;;;;;;;31.92;13.57;;;;;;;2.43;54.98;101412.94;5092875;28;20051;-62
2022/03/03 07:33:55;;;;;;;39.80;13.80;;;;;;;2.49;54.97;101409.97;5058728;28;20047;-62
2022/03/03 07:36:28;;;;;;;33.15;14.20;;;;;;;2.59;54.85;101423.44;5081954;28;20037;-62
2022/03/03 07:38:57;;;;;;;33.13;14.60;;;;;;;2.60;55.30;101425.97;5055681;28;20043;-62
2022/03/03 07:41:25;;;;;;;26.55;12.48;;;;;;;2.67;55.67;101429.94;5077274;28;20090;-62
2022/03/03 07:43:54;;;;;;;29.90;14.10;;;;;;;2.72;55.63;101429.66;5090459;28;20028;-62
2022/03/03 07:46:22;;;;;;;32.58;14.93;;;;;;;2.81;54.88;101423.91;5090069;28;20047;-62
2022/03/03 07:48:51;;;;;;;30.23;13.75;;;;;;;2.93;54.91;101426.75;5075765;28;20450;-61
2022/03/03 07:51:18;;;;;;;33.08;13.68;;;;;;;3.00;54.62;101431.56;5092700;28;20044;-61
2022/03/03 07:53:45;;;;;;;32.28;14.18;;;;;;;3.04;54.25;101434.88;5092935;28;20048;-61
2022/03/03 07:56:30;;;;;;;42.67;15.30;;;;;;;3.10;53.73;101431.88;5092933;28;20509;-61
2022/03/03 07:59:03;;;;;;;29.05;13.95;;;;;;;3.33;52.29;101427.91;5090719;28;20041;-62
2022/03/03 08:01:34;;;;;;;37.42;14.02;;;;;;;3.46;51.15;101428.03;5054827;28;20139;-61
2022/03/03 08:04:01;;;;;;;34.58;13.98;;;;;;;3.65;50.97;101425.97;5088783;28;20127;-61
2022/03/03 08:06:30;;;;;;;32.95;14.18;;;;;;;3.78;49.69;101423.47;5092198;28;20036;-62
2022/03/03 08:08:59;;;;;;;38.83;14.93;;;;;;;3.96;49.34;101425.91;5073029;28;20066;-62
2022/03/03 08:11:28;;;;;;;33.78;14.05;;;;;;;4.05;48.61;101430.59;5070762;28;20040;-62
2022/03/03 08:13:56;;;;;;;35.40;13.80;;;;;;;4.31;48.08;101431.59;5072663;28;20037;-62
2022/03/03 08:16:28;;;;;;;31.52;13.57;;;;;;;4.43;46.33;101432.59;5091211;28;20086;-63
2022/03/03 08:18:57;;;;;;;28.27;13.77;;;;;;;4.51;47.78;101427.72;5057613;28;20029;-63
2022/03/03 08:21:24;;;;;;;39.15;13.82;;;;;;;4.77;46.29;101427.81;5073771;28;20057;-62
2022/03/03 08:23:53;;;;;;;32.75;14.90;;;;;;;4.93;45.92;101431.13;5093841;28;20119;-63
2022/03/03 08:26:20;;;;;;;33.15;13.77;;;;;;;5.12;45.88;101428.13;5094056;28;20059;-62
2022/03/03 08:28:47;;;;;;;28.83;13.55;;;;;;;5.20;43.62;101432.84;5073322;28;20040;-62
2022/03/03 08:31:19;;;;;;;30.83;13.52;;;;;;;5.33;43.24;101427.63;5063832;28;20088;-62
2022/03/03 08:33:57;;;;;;;28.88;13.80;;;;;;;5.42;42.76;101415.63;5065522;28;20501;-62
2022/03/03 08:36:34;;;;;;;31.27;14.32;;;;;;;5.60;43.30;101424.91;5076006;28;20481;-62
2022/03/03 08:39:05;;;;;;;32.85;14.13;;;;;;;5.77;42.83;101424.59;5061550;28;20491;-62
2022/03/03 08:41:36;;;;;;;32.33;14.18;;;;;;;6.01;42.90;101429.13;5074796;28;20488;-62
2022/03/03 08:44:05;;;;;;;33.00;14.30;;;;;;;6.13;42.37;101424.78;5067505;28;20064;-63
2022/03/03 08:46:34;;;;;;;28.60;13.60;;;;;;;6.31;42.01;101418.22;5067032;28;20051;-63
2022/03/03 08:49:04;;;;;;;29.95;13.82;;;;;;;6.48;40.40;101432.81;5073725;28;20037;-64
2022/03/03 08:51:31;;;;;;;33.10;14.00;;;;;;;6.48;40.06;101419.63;5058296;28;20052;-63
2022/03/03 08:53:58;;;;;;;28.52;13.00;;;;;;;6.70;40.06;101420.72;5072655;28;20086;-63
2022/03/03 08:56:25;;;;;;;28.40;13.63;;;;;;;6.79;39.18;101429.75;5056218;28;20032;-63
2022/03/03 08:58:53;;;;;;;27.45;13.65;;;;;;;6.69;39.37;101427.81;5075537;28;20063;-63
2022/03/03 09:01:20;;;;;;;28.98;14.25;;;;;;;6.66;39.40;101428.00;5079309;28;20394;-63
2022/03/03 09:03:47;;;;;;;31.52;14.25;;;;;;;6.61;38.77;101416.13;5074788;28;20101;-64
2022/03/03 09:06:15;;;;;;;29.00;14.00;;;;;;;6.56;39.04;101416.44;5074461;28;20040;-62
2022/03/03 09:08:42;;;;;;;31.90;14.18;;;;;;;6.65;39.64;101417.56;5073641;28;20040;-63
2022/03/03 09:11:09;;;;;;;29.13;14.02;;;;;;;6.67;39.47;101428.84;5074026;28;20055;-62
2022/03/03 09:13:36;;;;;;;31.27;13.77;;;;;;;6.90;38.61;101425.38;5056804;28;20076;-62
2022/03/03 09:16:04;;;;;;;34.83;13.63;;;;;;;6.96;37.43;101420.59;5065406;28;20040;-62
2022/03/03 09:18:33;;;;;;;31.48;13.95;;;;;;;6.86;38.17;101420.44;5060297;28;20047;-62
2022/03/03 09:21:00;;;;;;;26.60;13.00;;;;;;;7.01;37.19;101418.47;5063584;28;20120;-62
2022/03/03 09:23:27;;;;;;;28.05;13.57;;;;;;;6.91;38.04;101420.91;5074408;28;20102;-62
2022/03/03 09:25:53;;;;;;;27.55;13.48;;;;;;;6.92;38.62;101417.34;5040791;28;20048;-62
2022/03/03 09:28:20;;;;;;;33.30;13.75;;;;;;;6.88;39.97;101411.44;5075610;28;20480;-63
2022/03/03 09:30:48;;;;;;;28.52;13.55;;;;;;;7.02;39.13;101415.72;5063576;28;20504;-63
2022/03/03 09:33:14;;;;;;;30.83;14.13;;;;;;;7.19;37.68;101413.59;5055314;28;20041;-62
2022/03/03 09:35:41;;;;;;;26.33;13.50;;;;;;;7.31;37.60;101399.47;5063127;28;20036;-62
2022/03/03 09:38:08;;;;;;;26.58;14.00;;;;;;;7.32;37.50;101406.44;5066126;28;20044;-63
2022/03/03 09:40:34;;;;;;;27.15;13.10;;;;;;;7.32;37.58;101403.78;5074948;28;20040;-63
2022/03/03 09:43:04;;;;;;;32.33;14.65;;;;;;;7.55;38.92;101403.81;5074293;28;20043;-62
2022/03/03 09:45:32;;;;;;;28.38;15.23;;;;;;;7.74;38.27;101403.25;5075315;28;20127;-62
2022/03/03 09:48:03;;;;;;;31.33;14.68;;;;;;;7.78;38.96;101396.78;5095036;28;20044;-62
2022/03/03 09:50:31;;;;;;;34.33;15.60;;;;;;;7.75;40.07;101397.84;5077500;28;20074;-63
2022/03/03 09:52:58;;;;;;;30.42;15.10;;;;;;;7.78;39.59;101402.06;5093855;28;20040;-63
2022/03/03 09:55:25;;;;;;;27.30;14.75;;;;;;;7.95;39.36;101404.22;5076811;28;20047;-63
2022/03/03 09:57:52;;;;;;;30.00;15.85;;;;;;;8.28;37.81;101397.22;5075853;28;20557;-63
2022/03/03 10:00:18;;;;;;;29.98;15.25;;;;;;;8.19;38.70;101398.78;5076020;28;20485;-63
2022/03/03 10:02:55;;;;;;;26.58;14.60;;;;;;;8.65;37.31;101407.47;5073780;28;20047;-63
2022/03/03 10:05:32;;;;;;;28.45;14.70;;;;;;;9.21;35.70;101403.75;5079672;28;20040;-63
2022/03/03 10:08:01;;;;;;;28.55;14.70;;;;;;;10.06;33.70;101404.44;5073946;28;20392;-63
2022/03/03 10:10:27;;;;;;;30.80;15.40;;;;;;;10.78;32.19;101403.38;5089249;28;20051;-63
2022/03/03 10:12:57;;;;;;;33.17;15.15;;;;;;;12.02;30.69;101403.41;5093606;28;20047;-62
2022/03/03 10:15:26;;;;;;;29.73;15.57;;;;;;;13.70;27.31;101411.63;5084830;28;20068;-62
2022/03/03 10:17:59;;;;;;;31.42;16.95;;;;;;;14.90;25.95;101406.19;5075951;28;20117;-62
2022/03/03 10:20:38;;;;;;;38.63;19.15;;;;;;;15.98;24.72;101413.84;5068048;28;20075;-62
2022/03/03 10:23:08;;;;;;;37.25;18.63;;;;;;;16.40;23.16;101411.81;5086568;28;20087;-62
2022/03/03 10:25:38;;;;;;;37.42;18.67;;;;;;;17.22;22.45;101406.72;5079179;28;20044;-62
2022/03/03 10:28:23;;;;;;;39.15;19.77;;;;;;;17.92;20.79;101410.06;5081027;28;20448;-62
2022/03/03 10:31:01;;;;;;;34.08;18.45;;;;;;;18.22;20.66;101413.50;5089988;28;20046;-62
2022/03/03 10:33:31;;;;;;;34.42;17.92;;;;;;;18.45;20.64;101404.50;5088568;28;20043;-62
2022/03/03 10:36:02;;;;;;;29.50;16.90;;;;;;;19.38;20.11;101402.66;5075368;28;20036;-63
2022/03/03 10:38:30;;;;;;;29.27;16.90;;;;;;;19.59;19.27;101403.59;5088264;28;20047;-63
2022/03/03 10:40:57;;;;;;;27.83;16.02;;;;;;;19.97;18.76;101394.31;5079942;28;20048;-63
2022/03/03 10:43:24;;;;;;;28.83;16.77;;;;;;;19.67;20.01;101397.25;5087658;28;20044;-63
2022/03/03 10:45:56;;;;;;;25.83;15.75;;;;;;;20.38;18.87;101394.28;5059515;28;20115;-63
2022/03/03 10:48:26;;;;;;;26.23;17.63;;;;;;;21.24;18.43;101390.00;5093661;28;20131;-63
2022/03/03 10:50:54;;;;;;;26.50;16.02;;;;;;;20.23;18.05;101385.50;5082553;28;20040;-63
2022/03/03 10:53:23;;;;;;;27.02;16.42;;;;;;;21.60;17.17;101380.66;5080958;28;20044;-63
2022/03/03 10:56:08;;;;;;;26.55;15.95;;;;;;;21.80;17.19;101388.69;5090807;28;20043;-63
2022/03/03 10:58:57;;;;;;;24.88;16.65;;;;;;;22.60;16.12;101382.91;5093259;28;20040;-63
2022/03/03 11:01:29;;;;;;;28.95;17.00;;;;;;;20.36;18.65;101382.03;5078465;28;20091;-63
2022/03/03 11:03:56;;;;;;;;;;;;;;;21.43;17.88;101382.94;5093844;28;20032;-66
2022/03/03 11:06:25;;;;;;;26.63;16.55;;;;;;;20.18;18.30;101382.59;5062337;28;19970;-66
2022/03/03 11:08:54;;;;;;;29.45;17.52;;;;;;;19.80;19.58;101383.06;5086142;28;20036;-65
2022/03/03 11:11:22;;;;;;;29.75;17.23;;;;;;;19.69;19.74;101384.44;5087932;28;20048;-66
2022/03/03 11:13:49;;;;;;;32.78;18.27;;;;;;;19.33;20.17;101385.44;5077850;28;20051;-66
2022/03/03 11:16:20;;;;;;;37.83;18.20;;;;;;;19.61;20.16;101384.56;5069945;28;20048;-66
2022/03/03 11:18:47;;;;;;;30.65;18.05;;;;;;;19.43;20.09;101377.00;5084581;28;20052;-65
2022/03/03 11:21:19;;;;;;;34.25;18.48;;;;;;;19.83;19.66;101379.97;5093836;28;20130;-65
2022/03/03 11:23:53;;;;;;;29.58;16.77;;;;;;;19.44;20.33;101378.69;5094913;28;20054;-66